Time;durP1;ratioP1;P1;durP2;ratioP2;P2;SDS_P1;SDS_P2;PMS_P1;PMS_P2;Temp;Humidity;BMP_temperature;BMP_pressure;BME280_temperature;BME280_humidity;BME280_pressure;Samples;Min_cycle;Max_cycle;Signal;HPM_P1;HPM_P2
2022/09/20 00:01:20;;;;;;;10.45;2.55;;;7.40;99.80;;;;;;5030636;28;20029;-69
2022/09/20 00:03:48;;;;;;;15.80;2.70;;;7.30;99.70;;;;;;5028140;28;20616;-69
2022/09/20 00:06:17;;;;;;;17.10;3.22;;;7.30;99.70;;;;;;5029346;28;20051;-69
2022/09/20 00:08:43;;;;;;;21.98;3.13;;;7.20;99.80;;;;;;5032212;28;20036;-69
2022/09/20 00:11:14;;;;;;;16.80;3.20;;;7.20;99.80;;;;;;5029482;28;20049;-70
2022/09/20 00:13:40;;;;;;;14.98;3.38;;;7.00;99.60;;;;;;5029982;28;20393;-70
2022/09/20 00:16:08;;;;;;;19.42;3.65;;;7.00;99.70;;;;;;5032035;28;20533;-70
2022/09/20 00:18:34;;;;;;;14.18;2.95;;;6.90;99.70;;;;;;5021976;28;20143;-69
2022/09/20 00:21:00;;;;;;;17.30;2.60;;;6.80;99.70;;;;;;5030976;28;20378;-69
2022/09/20 00:23:26;;;;;;;17.40;3.20;;;6.70;99.70;;;;;;5035863;28;20025;-70
2022/09/20 00:26:02;;;;;;;14.68;3.35;;;6.60;99.80;;;;;;5035135;28;20075;-69
2022/09/20 00:28:28;;;;;;;17.23;2.95;;;6.70;99.90;;;;;;5030537;28;20399;-71
2022/09/20 00:30:55;;;;;;;8.75;2.70;;;6.60;99.90;;;;;;5029989;28;20063;-69
2022/09/20 00:33:22;;;;;;;18.83;3.45;;;6.60;99.80;;;;;;5029496;28;20466;-71
2022/09/20 00:35:47;;;;;;;11.45;2.75;;;6.50;99.70;;;;;;5029321;28;20033;-69
2022/09/20 00:38:13;;;;;;;17.27;2.95;;;6.40;99.70;;;;;;5032988;28;20034;-69
2022/09/20 00:40:41;;;;;;;13.23;3.00;;;6.40;99.70;;;;;;5028735;28;20033;-71
2022/09/20 00:43:06;;;;;;;12.75;2.65;;;6.30;99.80;;;;;;5029311;28;20476;-69
2022/09/20 00:45:32;;;;;;;8.95;2.35;;;6.30;99.80;;;;;;5031564;28;20065;-69
2022/09/20 00:48:14;;;;;;;8.57;2.83;;;6.20;99.90;;;;;;5027086;28;20037;-69
2022/09/20 00:50:54;;;;;;;17.75;3.17;;;6.10;99.80;;;;;;5025038;28;20061;-69
2022/09/20 00:53:28;;;;;;;13.52;2.45;;;6.10;99.80;;;;;;5027935;28;20432;-69
2022/09/20 00:55:58;;;;;;;13.55;2.45;;;6.10;99.80;;;;;;5032919;28;20056;-69
2022/09/20 00:58:27;;;;;;;13.90;3.05;;;6.00;99.90;;;;;;5029072;28;20029;-70
2022/09/20 01:00:55;;;;;;;13.23;2.60;;;6.00;99.80;;;;;;5029217;28;20124;-69
2022/09/20 01:03:24;;;;;;;13.90;3.53;;;6.00;99.90;;;;;;5025473;28;20037;-70
2022/09/20 01:05:51;;;;;;;11.68;3.30;;;6.10;99.90;;;;;;5029843;28;20034;-69
2022/09/20 01:08:17;;;;;;;15.02;3.25;;;6.10;99.90;;;;;;5030433;28;20034;-69
2022/09/20 01:10:43;;;;;;;21.70;2.80;;;6.10;99.90;;;;;;5031710;28;21693;-69
2022/09/20 01:13:08;;;;;;;13.90;3.70;;;6.10;99.90;;;;;;5025616;28;20187;-71
2022/09/20 01:15:37;;;;;;;23.88;3.58;;;6.00;99.90;;;;;;5032086;28;20072;-69
2022/09/20 01:18:05;;;;;;;11.55;3.10;;;6.00;99.90;;;;;;5032325;28;20461;-69
2022/09/20 01:20:33;;;;;;;10.00;3.03;;;6.00;99.90;;;;;;5031560;28;20029;-69
2022/09/20 01:23:18;;;;;;;14.40;3.33;;;6.10;99.90;;;;;;5030343;28;22397;-70
2022/09/20 01:25:53;;;;;;;19.17;3.45;;;6.10;99.90;;;;;;5025448;28;20044;-69
2022/09/20 01:28:20;;;;;;;14.90;3.22;;;6.10;99.90;;;;;;5027070;28;20037;-70
2022/09/20 01:30:57;;;;;;;17.05;3.55;;;6.10;99.90;;;;;;5031041;28;20069;-69
2022/09/20 01:33:47;;;;;;;17.65;3.65;;;6.00;99.90;;;;;;5030407;28;20035;-69
2022/09/20 01:36:23;;;;;;;11.63;3.00;;;6.00;99.90;;;;;;5029355;28;20030;-69
2022/09/20 01:39:03;;;;;;;11.45;2.75;;;5.90;99.90;;;;;;5031425;28;20512;-69
2022/09/20 01:41:32;;;;;;;12.95;3.03;;;5.90;99.90;;;;;;5020888;28;20514;-69
2022/09/20 01:44:08;;;;;;;10.88;2.60;;;5.90;99.90;;;;;;5021483;28;20522;-69
2022/09/20 01:46:35;;;;;;;16.83;3.10;;;5.90;99.90;;;;;;5037192;28;20033;-69
2022/09/20 01:49:26;;;;;;;16.85;3.10;;;5.90;99.90;;;;;;5028287;28;20433;-69
2022/09/20 01:52:09;;;;;;;10.65;2.33;;;6.00;99.90;;;;;;5032191;28;20041;-71
2022/09/20 01:55:01;;;;;;;20.90;2.35;;;6.00;99.90;;;;;;5025438;28;20041;-70
2022/09/20 01:58:11;;;;;;;11.48;2.33;;;6.10;99.90;;;;;;5028097;28;20116;-69
2022/09/20 02:00:57;;;;;;;6.75;1.88;;;6.10;99.90;;;;;;5027258;28;20369;-69
2022/09/20 02:03:54;;;;;;;9.52;2.13;;;6.10;99.90;;;;;;5035508;28;20195;-69
2022/09/20 02:06:42;;;;;;;14.95;3.08;;;6.10;99.90;;;;;;5023903;28;20064;-70
2022/09/20 02:09:30;;;;;;;14.07;3.45;;;6.20;99.90;;;;;;5043778;28;20039;-69
2022/09/20 02:12:32;;;;;;;19.48;3.15;;;6.20;99.90;;;;;;5025446;28;20032;-69
2022/09/20 02:15:23;;;;;;;14.57;2.70;;;6.20;99.90;;;;;;5022173;28;20367;-69
2022/09/20 02:18:19;;;;;;;29.00;2.90;;;6.30;99.90;;;;;;5023948;28;20033;-70
2022/09/20 02:21:10;;;;;;;16.15;2.45;;;6.40;99.90;;;;;;5031178;28;20029;-69
2022/09/20 02:24:14;;;;;;;12.20;3.60;;;6.40;99.90;;;;;;5030422;28;20508;-69
2022/09/20 02:26:45;;;;;;;18.42;3.42;;;6.40;99.90;;;;;;5030229;28;20025;-70
2022/09/20 02:29:45;;;;;;;14.98;2.75;;;6.50;99.90;;;;;;5029910;28;20085;-70
2022/09/20 02:32:23;;;;;;;36.28;3.83;;;6.50;99.90;;;;;;5026177;28;20038;-69
2022/09/20 02:35:15;;;;;;;24.30;4.05;;;6.50;99.90;;;;;;5029268;28;20362;-69
2022/09/20 02:38:23;;;;;;;14.43;3.13;;;6.50;99.90;;;;;;5028836;28;20032;-69
2022/09/20 02:41:19;;;;;;;18.02;3.42;;;6.50;99.90;;;;;;5029128;28;20831;-69
2022/09/20 02:44:26;;;;;;;11.65;3.53;;;6.50;99.90;;;;;;5028590;28;20091;-71
2022/09/20 02:47:19;;;;;;;25.00;3.80;;;6.50;99.90;;;;;;5017148;28;20048;-69
2022/09/20 02:50:04;;;;;;;28.83;4.35;;;6.50;99.90;;;;;;5028615;28;20069;-70
2022/09/20 02:52:53;;;;;;;17.92;4.50;;;6.50;99.90;;;;;;5021810;28;20060;-70
2022/09/20 02:55:18;;;;;;;24.10;4.00;;;6.50;99.90;;;;;;5026837;28;20482;-70
2022/09/20 02:58:14;;;;;;;20.05;3.97;;;6.50;99.90;;;;;;5020347;28;20033;-70
2022/09/20 03:00:47;;;;;;;29.85;4.60;;;6.50;99.90;;;;;;5019859;28;20371;-69
2022/09/20 03:03:31;;;;;;;20.25;5.30;;;6.60;99.90;;;;;;5029033;28;20061;-69
2022/09/20 03:06:07;;;;;;;18.95;4.60;;;6.50;99.90;;;;;;5029205;28;20037;-69
2022/09/20 03:08:42;;;;;;;16.75;5.38;;;6.50;99.90;;;;;;5027563;28;20386;-69
2022/09/20 03:11:29;;;;;;;30.23;4.47;;;6.50;99.90;;;;;;5035051;28;20462;-71
2022/09/20 03:14:17;;;;;;;23.48;4.63;;;6.40;99.90;;;;;;5030948;28;20029;-69
2022/09/20 03:17:08;;;;;;;25.65;5.00;;;6.40;99.90;;;;;;5034717;28;20029;-69
2022/09/20 03:20:07;;;;;;;26.05;5.60;;;6.40;99.90;;;;;;5027273;28;20465;-69
2022/09/20 03:22:57;;;;;;;16.58;4.55;;;6.40;99.90;;;;;;5031164;28;20089;-69
2022/09/20 03:25:47;;;;;;;21.73;4.50;;;6.30;99.90;;;;;;5033408;28;20041;-69
2022/09/20 03:28:49;;;;;;;22.90;4.30;;;6.20;99.90;;;;;;5027820;28;20084;-70
2022/09/20 03:31:20;;;;;;;23.67;4.60;;;6.20;99.90;;;;;;5032252;28;20036;-69
2022/09/20 03:33:57;;;;;;;17.77;4.88;;;6.10;99.90;;;;;;5030687;28;20030;-69
2022/09/20 03:36:44;;;;;;;20.95;4.78;;;6.10;99.90;;;;;;5028276;28;20033;-69
2022/09/20 03:39:44;;;;;;;15.60;4.53;;;6.00;99.90;;;;;;5030977;28;20034;-70
2022/09/20 03:42:23;;;;;;;15.02;5.03;;;5.90;99.90;;;;;;5030011;28;20026;-69
2022/09/20 03:45:01;;;;;;;20.45;4.75;;;6.00;99.90;;;;;;5031866;28;20102;-70
2022/09/20 03:48:04;;;;;;;11.48;4.20;;;6.00;99.90;;;;;;5028412;28;20045;-69
2022/09/20 03:50:50;;;;;;;15.85;4.38;;;6.00;99.90;;;;;;5031962;28;20060;-70
2022/09/20 03:53:39;;;;;;;20.25;5.00;;;5.90;99.90;;;;;;5029079;28;20033;-70
2022/09/20 03:56:20;;;;;;;14.18;4.78;;;5.80;99.90;;;;;;5029957;28;20022;-72
2022/09/20 03:59:21;;;;;;;16.55;4.43;;;5.80;99.90;;;;;;5025173;28;20037;-70
2022/09/20 04:01:58;;;;;;;20.27;4.30;;;5.80;99.90;;;;;;5030117;28;20037;-70
2022/09/20 04:05:05;;;;;;;19.42;4.90;;;5.80;99.90;;;;;;5027446;28;20040;-70
2022/09/20 04:07:58;;;;;;;12.68;4.43;;;5.70;99.90;;;;;;4986121;28;20038;-71
2022/09/20 04:10:50;;;;;;;17.23;4.35;;;5.70;99.90;;;;;;5031871;28;20045;-71
2022/09/20 04:13:34;;;;;;;13.57;4.22;;;5.70;99.90;;;;;;5031243;28;20095;-70
2022/09/20 04:16:25;;;;;;;14.73;4.18;;;5.60;99.90;;;;;;5031919;28;20037;-71
2022/09/20 04:19:16;;;;;;;17.08;4.28;;;5.50;99.90;;;;;;5021042;28;20108;-70
2022/09/20 04:21:55;;;;;;;12.93;4.50;;;5.40;99.90;;;;;;5032444;28;20053;-70
2022/09/20 04:24:27;;;;;;;15.25;4.15;;;5.40;99.90;;;;;;5033860;28;20065;-70
2022/09/20 04:27:11;;;;;;;18.38;4.28;;;5.40;99.90;;;;;;5034082;28;20033;-70
2022/09/20 04:29:54;;;;;;;17.67;4.68;;;5.30;99.90;;;;;;5034870;28;20027;-67
2022/09/20 04:32:43;;;;;;;15.98;4.22;;;5.20;99.90;;;;;;5042069;28;20032;-69
2022/09/20 04:38:26;;;;;;;12.55;3.47;;;5.20;99.90;;;;;;5020147;28;20040;-68
2022/09/20 04:41:15;;;;;;;12.70;3.85;;;5.20;99.90;;;;;;5033962;28;20508;-68
2022/09/20 04:44:08;;;;;;;15.15;4.03;;;5.10;99.90;;;;;;5021906;28;20037;-70
2022/09/20 04:46:58;;;;;;;12.30;4.05;;;5.10;99.90;;;;;;5023169;28;20101;-68
2022/09/20 04:49:49;;;;;;;11.05;3.95;;;5.10;99.90;;;;;;5034951;28;20095;-68
2022/09/20 04:53:01;;;;;;;15.13;3.95;;;5.10;99.90;;;;;;5029862;28;20029;-69
2022/09/20 04:56:04;;;;;;;9.48;3.42;;;5.10;99.90;;;;;;5020436;28;20032;-69
2022/09/20 04:58:39;;;;;;;17.77;3.67;;;5.20;99.90;;;;;;5027438;28;20029;-68
2022/09/20 05:01:15;;;;;;;12.50;3.72;;;5.30;99.90;;;;;;5032364;28;20033;-68
2022/09/20 05:04:20;;;;;;;23.25;4.07;;;5.20;99.90;;;;;;5028826;28;20041;-68
2022/09/20 05:06:52;;;;;;;15.68;3.53;;;5.20;99.90;;;;;;5030109;28;20038;-68
2022/09/20 05:09:34;;;;;;;16.00;3.60;;;5.20;99.90;;;;;;5029644;28;20040;-68
2022/09/20 05:12:02;;;;;;;13.30;4.25;;;5.10;99.90;;;;;;5031566;28;20033;-68
2022/09/20 05:14:37;;;;;;;13.98;3.80;;;5.10;99.90;;;;;;5030757;28;20386;-68
2022/09/20 05:17:31;;;;;;;9.57;3.40;;;5.10;99.90;;;;;;5030638;28;20080;-71
2022/09/20 05:20:25;;;;;;;10.15;3.67;;;5.10;99.90;;;;;;5029449;28;20040;-70
2022/09/20 05:23:27;;;;;;;11.93;4.20;;;5.10;99.90;;;;;;5031181;28;20053;-70
2022/09/20 05:26:14;;;;;;;16.02;4.25;;;5.20;99.90;;;;;;5023227;28;20042;-70
2022/09/20 05:29:12;;;;;;;13.15;4.57;;;5.20;99.90;;;;;;5023188;28;20037;-70
2022/09/20 05:31:59;;;;;;;19.35;5.10;;;5.20;99.90;;;;;;5029371;28;20053;-70
2022/09/20 05:35:05;;;;;;;18.13;4.47;;;5.20;99.90;;;;;;5020511;28;20037;-71
2022/09/20 05:38:15;;;;;;;13.00;4.32;;;5.20;99.90;;;;;;5022994;28;20029;-69
2022/09/20 05:41:06;;;;;;;12.98;3.97;;;5.20;99.90;;;;;;5019391;28;20034;-69
2022/09/20 05:43:49;;;;;;;15.98;4.43;;;5.20;99.90;;;;;;5028899;28;20393;-69
2022/09/20 05:46:45;;;;;;;14.25;4.20;;;5.20;99.90;;;;;;5030231;28;20048;-69
2022/09/20 05:49:25;;;;;;;14.57;3.97;;;5.20;99.90;;;;;;5018165;28;20022;-69
2022/09/20 05:51:56;;;;;;;15.55;4.63;;;5.20;99.90;;;;;;5029244;28;20025;-69
2022/09/20 05:54:42;;;;;;;11.13;4.00;;;5.30;99.90;;;;;;5024420;28;20120;-69
2022/09/20 05:57:17;;;;;;;13.20;4.63;;;5.30;99.90;;;;;;5030535;28;20040;-69
2022/09/20 06:00:06;;;;;;;13.57;4.30;;;5.30;99.90;;;;;;5024038;28;20057;-70
2022/09/20 06:02:37;;;;;;;14.82;4.35;;;5.40;99.90;;;;;;5028833;28;20389;-69
2022/09/20 06:05:44;;;;;;;16.75;4.93;;;5.40;99.90;;;;;;5031760;28;20037;-69
2022/09/20 06:08:32;;;;;;;16.92;4.78;;;5.50;99.90;;;;;;5022887;28;20033;-70
2022/09/20 06:11:19;;;;;;;13.43;4.72;;;5.70;99.90;;;;;;5019349;28;20394;-70
2022/09/20 06:14:38;;;;;;;14.68;4.13;;;5.80;99.90;;;;;;5025695;28;20042;-69
2022/09/20 06:17:29;;;;;;;14.75;4.05;;;5.90;99.90;;;;;;4984671;28;20034;-70
2022/09/20 06:20:18;;;;;;;13.47;4.90;;;6.10;99.90;;;;;;5020123;28;20037;-70
2022/09/20 06:22:48;;;;;;;21.50;4.72;;;6.20;99.90;;;;;;5026201;28;20052;-71
2022/09/20 06:25:17;;;;;;;16.17;4.40;;;6.50;99.90;;;;;;5021019;28;20030;-70
2022/09/20 06:27:48;;;;;;;15.95;4.47;;;6.80;99.90;;;;;;5026924;28;20122;-69
2022/09/20 06:30:21;;;;;;;18.60;5.40;;;7.10;99.90;;;;;;5024407;28;20176;-70
2022/09/20 06:33:17;;;;;;;16.92;5.15;;;7.30;99.90;;;;;;5023683;28;20409;-70
2022/09/20 06:35:50;;;;;;;13.85;6.68;;;7.50;99.90;;;;;;5020720;28;20151;-70
2022/09/20 06:41:29;;;;;;;16.10;5.57;;;8.10;99.90;;;;;;5029786;28;20045;-70
2022/09/20 06:43:59;;;;;;;12.95;5.38;;;8.50;99.90;;;;;;5026120;28;20029;-70
2022/09/20 06:46:30;;;;;;;11.35;5.32;;;8.60;99.90;;;;;;5029791;28;20029;-70
2022/09/20 06:48:56;;;;;;;12.45;5.13;;;8.60;99.90;;;;;;5030054;28;20065;-70
2022/09/20 06:51:25;;;;;;;11.95;4.57;;;8.70;99.90;;;;;;5032454;28;20909;-69
2022/09/20 06:53:51;;;;;;;20.13;4.90;;;8.60;99.90;;;;;;5024751;28;20056;-71
2022/09/20 06:56:22;;;;;;;10.27;3.97;;;8.60;99.90;;;;;;5027799;28;20227;-70
2022/09/20 06:58:48;;;;;;;;;;;8.60;99.90;;;;;;5021928;28;20434;-70
2022/09/20 07:01:14;;;;;;;12.60;3.78;;;8.50;99.90;;;;;;5020139;28;20000;-69
2022/09/20 07:03:40;;;;;;;11.85;4.07;;;8.60;99.90;;;;;;5033631;28;20044;-69
2022/09/20 07:06:07;;;;;;;15.98;4.38;;;8.60;99.90;;;;;;5035099;28;20040;-70
2022/09/20 07:08:33;;;;;;;9.50;4.35;;;8.60;99.90;;;;;;5026289;28;20052;-71
2022/09/20 07:11:08;;;;;;;11.68;4.00;;;8.70;99.90;;;;;;5035375;28;20208;-69
2022/09/20 07:13:34;;;;;;;11.05;4.10;;;8.80;99.90;;;;;;5023567;28;20037;-70
2022/09/20 07:16:04;;;;;;;13.60;3.47;;;8.80;99.90;;;;;;5032881;28;20079;-69
2022/09/20 07:18:30;;;;;;;17.13;4.20;;;8.90;99.90;;;;;;5034750;28;20386;-69
2022/09/20 07:20:57;;;;;;;11.02;3.70;;;9.00;99.90;;;;;;5035441;28;20072;-69
2022/09/20 07:23:24;;;;;;;11.18;3.90;;;9.10;99.90;;;;;;5034071;28;20084;-69
2022/09/20 07:25:50;;;;;;;10.68;4.10;;;9.10;99.90;;;;;;5034479;28;20359;-70
2022/09/20 07:28:18;;;;;;;12.48;3.75;;;9.20;99.90;;;;;;5032709;28;20021;-69
2022/09/20 07:30:45;;;;;;;14.30;3.35;;;9.30;99.90;;;;;;5033564;28;20076;-69
2022/09/20 07:33:16;;;;;;;14.77;3.50;;;9.30;99.90;;;;;;5034789;28;20029;-69
2022/09/20 07:35:41;;;;;;;17.02;4.15;;;9.50;99.90;;;;;;5035310;28;20033;-70
2022/09/20 07:38:07;;;;;;;12.73;3.75;;;9.50;99.90;;;;;;5033662;28;20033;-69
2022/09/20 07:40:32;;;;;;;11.30;3.75;;;9.50;99.90;;;;;;5032912;28;20252;-69
2022/09/20 07:42:58;;;;;;;11.02;3.40;;;9.70;99.90;;;;;;5032181;28;20029;-69
2022/09/20 07:45:24;;;;;;;11.40;3.28;;;9.80;99.90;;;;;;5033316;28;20029;-70
2022/09/20 07:47:49;;;;;;;11.40;3.33;;;9.80;99.90;;;;;;5040977;28;20029;-70
2022/09/20 07:50:15;;;;;;;15.75;3.08;;;10.10;99.90;;;;;;5035543;28;20532;-69
2022/09/20 07:52:40;;;;;;;12.43;3.40;;;10.30;99.90;;;;;;5034582;28;20175;-69
2022/09/20 07:55:08;;;;;;;15.00;3.50;;;10.40;99.90;;;;;;5029491;28;20084;-70
2022/09/20 07:57:36;;;;;;;14.65;2.80;;;10.40;99.70;;;;;;5014957;28;20033;-71
2022/09/20 08:00:06;;;;;;;14.82;3.05;;;10.70;99.80;;;;;;5033226;28;20064;-70
2022/09/20 08:02:31;;;;;;;16.55;3.50;;;10.70;99.50;;;;;;5031680;28;20044;-69
2022/09/20 08:04:57;;;;;;;17.50;2.92;;;11.00;98.80;;;;;;5031179;28;20038;-69
2022/09/20 08:07:23;;;;;;;11.73;2.95;;;11.00;98.60;;;;;;5034041;28;20043;-69
2022/09/20 08:09:49;;;;;;;18.23;2.88;;;11.00;98.30;;;;;;5034064;28;20394;-70
2022/09/20 08:12:14;;;;;;;10.68;3.38;;;11.20;98.40;;;;;;5030721;28;20091;-69
2022/09/20 08:14:40;;;;;;;15.02;2.40;;;11.40;97.80;;;;;;5031379;28;20033;-70
2022/09/20 08:17:05;;;;;;;16.83;2.63;;;11.50;97.20;;;;;;5033938;28;20457;-70
2022/09/20 08:19:31;;;;;;;17.90;2.50;;;11.60;96.00;;;;;;5032060;28;20166;-70
2022/09/20 08:21:56;;;;;;;8.20;2.00;;;11.70;95.30;;;;;;5035067;28;20528;-70
2022/09/20 08:24:24;;;;;;;17.70;2.30;;;11.90;94.90;;;;;;5033728;28;20095;-70
2022/09/20 08:26:50;;;;;;;15.90;2.17;;;12.00;93.70;;;;;;5032541;28;20029;-70
2022/09/20 08:29:16;;;;;;;13.40;2.05;;;11.90;91.30;;;;;;5029770;28;20037;-69
2022/09/20 08:31:42;;;;;;;23.10;2.13;;;11.90;91.30;;;;;;5029666;28;20446;-70
2022/09/20 08:34:10;;;;;;;19.27;2.35;;;12.10;90.60;;;;;;5033297;28;20105;-70
2022/09/20 08:36:40;;;;;;;15.00;1.92;;;12.50;90.60;;;;;;5032965;28;20370;-70
2022/09/20 08:39:06;;;;;;;13.20;1.67;;;12.60;88.90;;;;;;5034248;28;20473;-69
2022/09/20 08:41:55;;;;;;;14.88;2.13;;;12.60;88.70;;;;;;5031767;28;20120;-69
2022/09/20 08:44:33;;;;;;;17.05;1.65;;;12.90;87.60;;;;;;5030248;28;20108;-69
2022/09/20 08:47:17;;;;;;;6.80;1.52;;;13.00;86.20;;;;;;5030328;28;20061;-69
2022/09/20 08:49:43;;;;;;;13.27;1.48;;;13.30;88.30;;;;;;5030388;28;20040;-70
2022/09/20 08:52:16;;;;;;;14.02;1.35;;;13.40;83.80;;;;;;5033637;28;20022;-67
2022/09/20 08:54:42;;;;;;;13.73;1.88;;;13.60;84.30;;;;;;5023637;28;20030;-68
2022/09/20 08:57:16;;;;;;;8.75;1.40;;;13.60;83.20;;;;;;5031770;28;20033;-68
2022/09/20 08:59:42;;;;;;;7.55;1.00;;;13.70;82.10;;;;;;5023142;28;20377;-68
2022/09/20 09:02:16;;;;;;;6.53;1.27;;;13.80;82.20;;;;;;5033747;28;20029;-68
2022/09/20 09:04:45;;;;;;;5.78;0.90;;;13.80;84.10;;;;;;5032745;28;20049;-67
2022/09/20 09:07:14;;;;;;;5.47;1.20;;;13.80;80.70;;;;;;5025944;28;20022;-68
2022/09/20 09:09:45;;;;;;;5.40;1.00;;;14.00;81.60;;;;;;5027255;28;20108;-67
2022/09/20 09:12:24;;;;;;;8.43;1.30;;;14.50;81.10;;;;;;5029975;28;20115;-68
2022/09/20 09:14:56;;;;;;;7.30;0.95;;;14.60;80.30;;;;;;5031504;28;20363;-68
2022/09/20 09:17:27;;;;;;;7.65;1.27;;;14.50;77.30;;;;;;5032964;28;20111;-69
2022/09/20 09:19:55;;;;;;;5.13;1.00;;;14.40;78.00;;;;;;5033087;28;20037;-68
2022/09/20 09:22:34;;;;;;;8.45;1.42;;;14.30;78.10;;;;;;5033254;28;20057;-68
2022/09/20 09:25:06;;;;;;;9.38;1.35;;;14.50;78.70;;;;;;5030106;28;20083;-68
2022/09/20 09:27:33;;;;;;;7.00;1.20;;;14.80;78.70;;;;;;5026030;28;20040;-68
2022/09/20 09:29:59;;;;;;;7.78;1.17;;;15.10;76.00;;;;;;5030256;28;20037;-68
2022/09/20 09:32:28;;;;;;;12.13;1.25;;;15.30;74.20;;;;;;5031573;28;20044;-68
2022/09/20 09:34:53;;;;;;;9.10;1.35;;;15.40;74.20;;;;;;5032979;28;20037;-68
2022/09/20 09:37:23;;;;;;;5.60;1.17;;;15.00;74.60;;;;;;5032987;28;20037;-68
2022/09/20 09:40:15;;;;;;;6.72;1.08;;;15.10;75.20;;;;;;5030855;28;20113;-67
2022/09/20 09:42:49;;;;;;;6.53;1.20;;;14.80;75.10;;;;;;5029469;28;20032;-68
2022/09/20 09:45:29;;;;;;;10.68;1.42;;;14.60;74.10;;;;;;5032338;28;20050;-68
2022/09/20 09:47:56;;;;;;;10.57;1.43;;;14.70;76.90;;;;;;5041059;28;20056;-68
2022/09/20 09:50:33;;;;;;;6.47;0.90;;;14.60;75.80;;;;;;5032414;28;20025;-68
2022/09/20 09:53:02;;;;;;;7.40;1.38;;;14.60;75.70;;;;;;5031644;28;20140;-68
2022/09/20 09:55:50;;;;;;;6.38;0.80;;;14.60;75.10;;;;;;5030722;28;20220;-68
2022/09/20 09:58:38;;;;;;;4.30;1.00;;;14.60;74.80;;;;;;5024488;28;20029;-68
2022/09/20 10:01:09;;;;;;;9.73;1.23;;;14.80;71.00;;;;;;5032034;28;20041;-68
2022/09/20 10:03:48;;;;;;;2.88;0.60;;;14.70;71.30;;;;;;5027495;28;20539;-68
2022/09/20 10:06:25;;;;;;;6.45;1.10;;;14.60;72.50;;;;;;5031720;28;20036;-68
2022/09/20 10:09:15;;;;;;;7.63;1.35;;;14.90;71.00;;;;;;5022058;28;20026;-68
2022/09/20 10:11:57;;;;;;;7.18;0.80;;;15.40;69.70;;;;;;5030888;28;20040;-68
2022/09/20 10:14:30;;;;;;;7.57;1.38;;;15.60;68.00;;;;;;5026199;28;20059;-69
2022/09/20 10:17:39;;;;;;;7.90;1.00;;;15.30;67.00;;;;;;5032050;28;20117;-68
2022/09/20 10:20:40;;;;;;;6.78;1.13;;;15.00;69.00;;;;;;5028981;28;20041;-69
2022/09/20 10:23:13;;;;;;;6.10;0.80;;;15.50;66.30;;;;;;5015524;28;20038;-68
2022/09/20 10:26:12;;;;;;;5.47;1.10;;;15.50;66.70;;;;;;5027020;28;20033;-68
2022/09/20 10:28:53;;;;;;;3.90;0.90;;;15.00;68.10;;;;;;5025721;28;20029;-70
2022/09/20 10:31:34;;;;;;;5.22;0.93;;;14.90;70.00;;;;;;5030124;28;20034;-68
2022/09/20 10:34:36;;;;;;;5.90;0.93;;;14.50;69.60;;;;;;5031503;28;20048;-68
2022/09/20 10:37:01;;;;;;;10.45;1.20;;;15.00;71.00;;;;;;5027934;28;20035;-70
2022/09/20 10:39:34;;;;;;;6.45;1.05;;;15.50;69.50;;;;;;5045894;28;20063;-69
2022/09/20 10:45:01;;;;;;;3.97;0.90;;;16.20;64.60;;;;;;5020791;28;20060;-68
2022/09/20 10:47:49;;;;;;;2.85;0.70;;;16.40;64.40;;;;;;5029401;28;20061;-68
2022/09/20 10:50:54;;;;;;;8.63;1.00;;;16.30;60.70;;;;;;5031964;28;20041;-68
2022/09/20 10:54:02;;;;;;;6.05;1.10;;;16.20;64.40;;;;;;5022744;28;20030;-68
2022/09/20 10:56:45;;;;;;;7.55;1.20;;;16.20;65.10;;;;;;5036008;28;20776;-68
2022/09/20 10:59:47;;;;;;;6.22;1.20;;;16.80;64.50;;;;;;5027023;28;20208;-68
2022/09/20 11:02:20;;;;;;;4.70;1.00;;;16.60;63.60;;;;;;5030593;28;20036;-68
2022/09/20 11:05:23;;;;;;;3.28;0.73;;;16.60;64.80;;;;;;5031670;28;20034;-68
2022/09/20 11:08:10;;;;;;;4.30;0.75;;;16.90;64.50;;;;;;5028296;28;20109;-68
2022/09/20 11:10:41;;;;;;;5.25;0.70;;;16.60;63.80;;;;;;5029784;28;20026;-69
2022/09/20 11:13:14;;;;;;;;;;;16.40;63.70;;;;;;5029234;28;20029;-68
2022/09/20 11:15:58;;;;;;;5.50;1.05;;;16.10;63.40;;;;;;5027919;28;20293;-70
2022/09/20 11:18:31;;;;;;;4.68;1.42;;;16.30;62.70;;;;;;5019004;28;20359;-68
2022/09/20 11:21:06;;;;;;;6.72;1.17;;;16.30;64.30;;;;;;5027845;28;20478;-68
2022/09/20 11:23:49;;;;;;;5.55;1.20;;;16.50;63.40;;;;;;5029826;28;20041;-68
2022/09/20 11:26:43;;;;;;;7.13;0.90;;;17.10;63.40;;;;;;5030345;28;20120;-68
2022/09/20 11:29:25;;;;;;;7.65;1.00;;;17.10;60.30;;;;;;5011217;28;20041;-69
2022/09/20 11:31:54;;;;;;;4.45;0.90;;;17.00;62.20;;;;;;5030756;28;20382;-68
2022/09/20 11:34:28;;;;;;;3.92;1.23;;;17.10;62.10;;;;;;5030970;28;20029;-68
2022/09/20 11:37:02;;;;;;;7.35;0.98;;;16.50;62.30;;;;;;5029812;28;22483;-68
2022/09/20 11:39:45;;;;;;;5.63;1.02;;;16.50;62.10;;;;;;5035265;28;20033;-69
2022/09/20 11:42:30;;;;;;;7.70;1.42;;;16.80;61.50;;;;;;5021762;28;20136;-68
2022/09/20 11:44:56;;;;;;;7.78;1.13;;;17.00;60.80;;;;;;5032274;28;20033;-69
2022/09/20 11:47:33;;;;;;;5.10;0.93;;;16.90;64.30;;;;;;5034367;28;20583;-68
2022/09/20 11:50:45;;;;;;;3.75;0.80;;;16.60;64.10;;;;;;5034283;28;20043;-69
2022/09/20 11:53:40;;;;;;;4.35;0.93;;;16.10;64.00;;;;;;5031662;28;20017;-68
2022/09/20 11:56:19;;;;;;;8.32;1.10;;;15.80;63.10;;;;;;5031988;28;20033;-69
2022/09/20 11:58:54;;;;;;;7.68;1.35;;;15.60;64.40;;;;;;5033061;28;20026;-68
2022/09/20 12:01:41;;;;;;;6.25;1.00;;;15.50;66.40;;;;;;5034404;28;20481;-68
2022/09/20 12:04:19;;;;;;;6.75;1.10;;;15.40;65.20;;;;;;5034877;28;20057;-69
2022/09/20 12:06:45;;;;;;;4.45;0.73;;;15.50;65.70;;;;;;5031512;28;20382;-68
2022/09/20 12:09:25;;;;;;;4.35;1.00;;;15.70;64.90;;;;;;5032096;28;20034;-68
2022/09/20 12:11:51;;;;;;;6.35;1.13;;;16.30;61.40;;;;;;5031530;28;20374;-71
2022/09/20 12:14:24;;;;;;;6.72;1.00;;;17.30;61.30;;;;;;5031983;28;20029;-69
2022/09/20 12:16:51;;;;;;;3.00;0.90;;;18.10;59.40;;;;;;5033503;28;20152;-68
2022/09/20 12:19:20;;;;;;;5.20;1.02;;;17.80;58.40;;;;;;5030151;28;20428;-69
2022/09/20 12:22:15;;;;;;;5.40;1.13;;;16.90;60.30;;;;;;5031988;28;20053;-68
2022/09/20 12:24:41;;;;;;;7.63;1.10;;;17.10;61.80;;;;;;5028522;28;20065;-68
2022/09/20 12:27:26;;;;;;;8.27;1.00;;;18.00;59.90;;;;;;5028776;28;20430;-68
2022/09/20 12:30:05;;;;;;;6.82;0.77;;;17.60;59.10;;;;;;5028058;28;20029;-68
2022/09/20 12:32:55;;;;;;;5.70;0.70;;;17.80;59.60;;;;;;5019982;28;20037;-69
2022/09/20 12:35:35;;;;;;;3.97;0.80;;;17.10;62.40;;;;;;5030572;28;20124;-69
2022/09/20 12:38:19;;;;;;;5.38;0.73;;;16.80;64.10;;;;;;5027092;28;20492;-68
2022/09/20 12:41:08;;;;;;;5.93;0.90;;;16.40;64.40;;;;;;5030317;28;20396;-68
2022/09/20 12:43:45;;;;;;;3.28;0.70;;;16.20;66.40;;;;;;5024709;28;20096;-68
2022/09/20 12:46:28;;;;;;;6.15;1.00;;;16.00;67.90;;;;;;5018351;28;20041;-68
2022/09/20 12:52:49;;;;;;;4.72;0.77;;;15.60;68.20;;;;;;5026613;28;20466;-68
2022/09/20 12:55:32;;;;;;;5.53;1.40;;;14.90;70.00;;;;;;5030450;28;20040;-69
2022/09/20 12:58:16;;;;;;;5.28;0.88;;;14.50;73.10;;;;;;5029468;28;20389;-69
2022/09/20 13:00:58;;;;;;;7.88;1.23;;;14.10;75.70;;;;;;5023437;28;20421;-69
2022/09/20 13:03:35;;;;;;;6.22;0.90;;;14.00;77.20;;;;;;5030111;28;20041;-69
2022/09/20 13:06:07;;;;;;;5.43;1.15;;;13.80;76.20;;;;;;5033107;28;20033;-69
2022/09/20 13:08:50;;;;;;;8.15;0.77;;;13.80;78.30;;;;;;5033007;28;20029;-70
2022/09/20 13:11:40;;;;;;;3.00;0.63;;;13.70;79.10;;;;;;5027633;28;20021;-69
2022/09/20 13:14:25;;;;;;;4.68;0.82;;;13.60;81.30;;;;;;5025249;28;20033;-68
2022/09/20 13:16:55;;;;;;;3.13;1.08;;;13.60;82.20;;;;;;5022258;28;20434;-68
2022/09/20 13:19:32;;;;;;;5.88;1.02;;;13.50;83.20;;;;;;5026310;28;20030;-69
2022/09/20 13:22:04;;;;;;;6.75;1.08;;;14.40;83.40;;;;;;5025470;28;20450;-69
2022/09/20 13:24:42;;;;;;;8.55;1.27;;;15.70;77.10;;;;;;5030903;28;20067;-69
2022/09/20 13:27:14;;;;;;;6.70;1.10;;;16.90;70.70;;;;;;5028020;28;20159;-70
2022/09/20 13:29:43;;;;;;;5.00;0.93;;;17.80;67.10;;;;;;5028548;28;20057;-69
2022/09/20 13:32:28;;;;;;;2.70;0.68;;;18.20;59.60;;;;;;5031053;28;20710;-70
2022/09/20 13:35:08;;;;;;;7.90;1.13;;;18.60;59.90;;;;;;5029912;28;20099;-70
2022/09/20 13:37:35;;;;;;;5.85;0.90;;;18.80;57.00;;;;;;5033200;28;20366;-70
2022/09/20 13:40:02;;;;;;;7.45;1.02;;;19.20;59.20;;;;;;5032507;28;20080;-70
2022/09/20 13:42:29;;;;;;;4.85;0.77;;;19.70;55.50;;;;;;5029936;28;20092;-70
2022/09/20 13:44:57;;;;;;;4.88;1.38;;;19.90;53.50;;;;;;5032196;28;20038;-71
2022/09/20 13:47:30;;;;;;;4.43;0.73;;;20.20;54.20;;;;;;5030659;28;20057;-70
2022/09/20 13:50:18;;;;;;;6.32;1.05;;;19.60;52.40;;;;;;5027189;28;20465;-70
2022/09/20 13:52:57;;;;;;;3.78;0.80;;;19.60;51.90;;;;;;5031981;28;20037;-69
2022/09/20 13:55:35;;;;;;;4.82;0.98;;;19.80;50.70;;;;;;5015741;28;20057;-70
2022/09/20 13:58:17;;;;;;;4.28;1.02;;;20.30;49.30;;;;;;5020875;28;20037;-70